Bryson City, NC (28713)

04:07 EST le 24 janvier 2017 (GMT -0500)
Appalachian Monitoring Station | | Change Station
Avis météorologiques actifs: Wind Advisory

Alt. 1742 ft 35.43 °N, 83.44 °W | Updated 16 seconds ago

Nuageux
Nuageux
41.5 ° F
Paraît 42 ° F
N
0.0
Vent Variable Vent de NE

Aujourd'hui
Haut(e) -- | Bas -- ° F
--% Risque de précip.
Hier
Haut(e) -- | Bas -- ° F
Precip. -- pouce
Pression 29.70 pouce
Visibilité 10.0 Miles terrestres
Nuages Couvert 1900 ft
Refroidissement éolien 42 ° F
Point de rosée 40 ° F
Humidité 95%
Précipitations 0.00 pouce
Profondeur de la couche neigeuse Non disponible.
7:38 AM 5:53 PM
Lune descendante, 13% visible
METAR K1A5 240840Z AUTO 31008G16KT 270V330 10SM OVC019 07/02 A2970 RMK AO2 T00660023
Pression 29.70 pouce
Visibilité 10.0 Miles terrestres
Nuages Couvert 1900 ft
Refroidissement éolien 42 ° F
Point de rosée 40 ° F
Humidité 95%
Précipitations 0.00 pouce
Profondeur de la couche neigeuse Non disponible.
7:38 AM 5:53 PM
Lune descendante, 13% visible
METAR K1A5 240840Z AUTO 31008G16KT 270V330 10SM OVC019 07/02 A2970 RMK AO2 T00660023

Get Your Daily Forecast Email!

Thanks for signing up!

Be on the lookout for a verification email in your inbox.

You'll start receiving the daily forecast at 8 AM.

×

10-Day Weather Forecast

Almanac

Astronomie

Jan. 24, 2017 Lever Coucher
Temps réel
Crépuscule civil
Crépuscule nautique
Crépuscule astronomique
Lune
Durée de lumière visible
Longueur du jour
Tomorrow will be .
, % of the Moon is Illuminated

Extrêmes aujourd'hui

State Highs State Lows

Community

WunderPhotos

Upload Photos

1,962,540 Photos téléchargées !

WunderBlog® & News

Nearby

Qualité de l'air

  Qualité de l'air Indice de la qualité de l'air Polluant
Not available.

Épaisseur de neige

Station Depth Altitude

Activité sismique

Ville Distance Mag. Time & Date
Minimum magnitude displayed is 2.5.

Températures des eaux côtières

Lieu Température

Stations

Stations météo à proximité

Emplacement de la station Température Refroidissement éolien Point de rosée Humidité Vent Precip. Alt. Mise à jour Type
                   

Watches & Warnings

Wind Advisory
Issued: 22:15 EST Jan. 23, 2017 – National Weather Service

... Wind Advisory remains in effect until noon EST Tuesday...

* locations... the mountains of western North Carolina.

* Hazards... very windy conditions.

* Timing... gusty northwest winds will increase overnight before
weakening by noon on Tuesday.

* Winds... northwest 20 to 30 mph with gusts of 40 to 50 mph.

* Impacts... strong winds may blow down limbs... trees... and power
lines. Scattered power outages are expected.

Precautionary/preparedness actions...

A Wind Advisory means that winds of 35 mph are expected. Winds
this strong can make driving difficult... especially for high
profile vehicles. Use extra caution.

Stay tuned to NOAA Weather Radio or your favorite source of
weather information for the latest updates. Additional details
can be found at www.Weather.Gov/gsp.


07